createdAt,value
2023-02-14T00:08:00.910Z,21.20
2023-02-14T00:18:08.328Z,22.30
2023-02-14T00:28:15.497Z,26.10
2023-02-14T00:38:22.699Z,25.20
2023-02-14T00:48:29.702Z,28.70
2023-02-14T00:58:36.897Z,16.90
2023-02-14T01:08:44.025Z,20.60
2023-02-14T01:18:52.153Z,16.40
2023-02-14T01:29:00.035Z,24.00
2023-02-14T01:39:10.228Z,33.70
2023-02-14T01:49:19.948Z,20.20
2023-02-14T02:09:31.654Z,123.10
2023-02-14T02:19:55.186Z,75.30
2023-02-14T02:30:36.004Z,44.30
2023-02-14T02:40:44.010Z,35.20
2023-02-14T02:51:13.185Z,23.10
2023-02-14T03:01:22.144Z,20.50
2023-02-14T03:11:29.949Z,13.40
2023-02-14T03:21:35.392Z,16.20
2023-02-14T03:31:46.283Z,24.30
2023-02-14T03:41:54.599Z,15.10
2023-02-14T03:52:04.023Z,15.60
2023-02-14T04:02:16.860Z,15.30
2023-02-14T04:12:37.166Z,25.00
2023-02-14T04:22:46.474Z,26.10
2023-02-14T04:32:53.499Z,26.40
2023-02-14T04:43:00.720Z,19.00
2023-02-14T04:53:07.996Z,18.90
2023-02-14T05:03:15.464Z,23.90
2023-02-14T05:13:23.235Z,20.80
2023-02-14T05:23:30.661Z,30.10
2023-02-14T05:33:38.371Z,48.40
2023-02-14T05:43:45.830Z,22.60
2023-02-14T05:53:53.268Z,25.10
2023-02-14T06:04:00.527Z,25.60
2023-02-14T06:14:08.429Z,25.20
2023-02-14T06:24:15.625Z,37.20
2023-02-14T06:34:22.828Z,42.90
2023-02-14T06:44:30.450Z,24.30
2023-02-14T06:54:38.127Z,22.10
2023-02-14T07:04:45.218Z,24.80
2023-02-14T07:14:52.379Z,24.50
2023-02-14T07:24:59.726Z,33.40
2023-02-14T07:35:05.840Z,84.80
2023-02-14T07:45:21.135Z,29.10
2023-02-14T07:55:29.609Z,30.90
2023-02-14T08:05:37.059Z,25.70
2023-02-14T08:16:02.402Z,26.10
2023-02-14T08:26:08.975Z,29.60
2023-02-14T08:36:18.351Z,26.60
2023-02-14T08:46:25.598Z,20.60
2023-02-14T08:56:33.496Z,18.40
2023-02-14T09:06:40.615Z,30.60
2023-02-14T09:16:47.795Z,26.70
2023-02-14T09:26:55.960Z,22.00
2023-02-14T09:37:04.881Z,22.70
2023-02-14T09:47:13.868Z,17.10
2023-02-14T09:57:22.499Z,27.70
2023-02-14T10:07:30.035Z,19.20
2023-02-14T10:17:36.916Z,14.20
2023-02-14T10:27:46.892Z,24.50
2023-02-14T10:37:54.595Z,30.70
2023-02-14T10:48:00.112Z,22.60
2023-02-14T10:58:13.288Z,19.10
2023-02-14T11:08:20.164Z,23.10
2023-02-14T11:18:30.140Z,24.60
2023-02-14T11:28:41.788Z,19.50
2023-02-14T11:38:59.732Z,22.50
2023-02-14T11:49:17.248Z,29.00
2023-02-14T11:59:29.338Z,24.90
2023-02-14T12:09:40.895Z,18.30
2023-02-14T12:19:50.764Z,20.70
2023-02-14T12:30:04.346Z,27.00
2023-02-14T12:40:12.222Z,27.20
2023-02-14T12:50:44.835Z,20.30
2023-02-14T13:00:49.898Z,17.20
2023-02-14T13:10:56.142Z,33.80
2023-02-14T13:21:06.432Z,27.70
2023-02-14T13:31:15.321Z,18.00
2023-02-14T13:41:22.896Z,18.80
2023-02-14T13:51:47.533Z,19.20
2023-02-14T14:01:54.920Z,17.40
2023-02-14T14:12:02.224Z,16.90
2023-02-14T14:22:08.811Z,29.70
2023-02-14T14:32:28.100Z,20.20
2023-02-14T14:42:40.221Z,23.90
2023-02-14T14:52:51.160Z,21.80
2023-02-14T15:03:02.564Z,19.40
2023-02-14T15:13:32.739Z,24.60
2023-02-14T15:23:39.960Z,39.70
2023-02-14T15:33:47.647Z,27.50
2023-02-14T15:43:57.537Z,30.00
2023-02-14T15:54:07.881Z,22.30
2023-02-14T16:04:15.388Z,16.10
2023-02-14T16:14:31.007Z,29.70
2023-02-14T16:24:37.481Z,49.50
2023-02-14T16:34:47.603Z,28.20
2023-02-14T16:44:55.579Z,33.60
2023-02-14T16:55:04.042Z,37.20
2023-02-14T17:05:08.659Z,27.30
2023-02-14T17:15:13.902Z,49.30
2023-02-14T17:25:21.112Z,36.60
2023-02-14T17:35:28.692Z,38.10
2023-02-14T17:45:35.768Z,72.90
2023-02-14T17:55:42.881Z,70.70
2023-02-14T18:05:50.214Z,94.70
2023-02-14T18:15:57.355Z,76.00
2023-02-14T18:26:07.552Z,115.80
2023-02-14T18:36:17.316Z,132.10
2023-02-14T18:46:26.731Z,75.70
2023-02-14T19:06:42.395Z,73.60
2023-02-14T19:16:50.835Z,63.60
2023-02-14T19:26:59.135Z,45.00
2023-02-14T19:37:06.946Z,123.00
2023-02-14T19:47:25.620Z,63.20
2023-02-14T19:57:36.931Z,59.30
2023-02-14T20:07:43.754Z,53.70
2023-02-14T20:17:50.939Z,69.70
2023-02-14T20:38:05.800Z,64.80
2023-02-14T20:48:11.898Z,84.50
2023-02-14T20:58:19.609Z,45.40
2023-02-14T21:08:25.781Z,53.30
2023-02-14T21:28:39.495Z,45.80
2023-02-14T21:38:47.054Z,58.30
2023-02-14T21:49:12.720Z,48.70
2023-02-14T21:59:19.764Z,36.70
2023-02-14T22:09:26.969Z,30.80
2023-02-14T22:19:35.554Z,47.80
2023-02-14T22:29:42.818Z,67.80
2023-02-14T22:39:50.503Z,75.70
2023-02-14T22:49:59.379Z,85.00
2023-02-14T23:00:11.869Z,78.90
2023-02-14T23:10:18.207Z,56.20
2023-02-14T23:20:43.076Z,43.00
2023-02-14T23:30:50.224Z,58.80
2023-02-14T23:41:15.241Z,50.80
2023-02-14T23:51:22.537Z,54.90
